createdAt,value
2022-12-09T00:00:07.626Z,-1
2022-12-09T00:01:05.733Z,-1
2022-12-09T00:02:06.915Z,-1
2022-12-09T00:03:06.553Z,-0.8
2022-12-09T00:04:06.376Z,-0.8
2022-12-09T00:05:07.380Z,-0.8
2022-12-09T00:06:05.786Z,-0.8
2022-12-09T00:07:06.206Z,-0.8
2022-12-09T00:08:06.075Z,-0.8
2022-12-09T00:09:06.975Z,-0.8
2022-12-09T00:10:05.936Z,-0.8
2022-12-09T00:11:05.653Z,-0.8
2022-12-09T00:12:04.847Z,-1
2022-12-09T00:13:06.265Z,-0.8
2022-12-09T00:14:06.251Z,-0.8
2022-12-09T00:15:06.183Z,-0.8
2022-12-09T00:16:06.130Z,-1
2022-12-09T00:17:06.949Z,-1
2022-12-09T00:18:05.910Z,-0.8
2022-12-09T00:19:06.541Z,-0.8
2022-12-09T00:20:06.544Z,-0.8
2022-12-09T00:21:06.265Z,-0.8
2022-12-09T00:22:06.168Z,-0.8
2022-12-09T00:23:05.642Z,-0.8
2022-12-09T00:24:05.917Z,-2
2022-12-09T00:25:06.132Z,-0.8
2022-12-09T00:26:06.906Z,-2
2022-12-09T00:27:06.417Z,-0.8
2022-12-09T00:28:05.735Z,-0.8
2022-12-09T00:29:05.864Z,-0.8
2022-12-09T00:30:07.617Z,-0.8
2022-12-09T00:31:06.165Z,-0.8
2022-12-09T00:32:06.492Z,-0.8
2022-12-09T00:33:06.059Z,-0.8
2022-12-09T00:34:06.195Z,-0.8
2022-12-09T00:35:06.559Z,-0.7
2022-12-09T00:36:06.295Z,-0.7
2022-12-09T00:37:06.165Z,-0.7
2022-12-09T00:38:07.109Z,-0.7
2022-12-09T00:39:06.444Z,-0.7
2022-12-09T00:40:07.129Z,-0.7
2022-12-09T00:41:06.180Z,-0.7
2022-12-09T00:42:05.931Z,-0.7
2022-12-09T00:43:05.845Z,-0.7
2022-12-09T00:44:06.359Z,-0.7
2022-12-09T00:45:06.136Z,-0.7
2022-12-09T00:46:06.261Z,-0.7
2022-12-09T00:47:06.625Z,-0.7
2022-12-09T00:48:05.677Z,-0.7
2022-12-09T00:49:05.907Z,-0.7
2022-12-09T00:50:07.468Z,-0.7
2022-12-09T00:51:05.750Z,-0.7
2022-12-09T00:52:06.401Z,-0.7
2022-12-09T00:53:06.127Z,-0.8
2022-12-09T00:54:06.302Z,-0.8
2022-12-09T00:55:06.631Z,-0.7
2022-12-09T00:56:06.484Z,-0.7
2022-12-09T00:57:06.096Z,-0.7
2022-12-09T00:58:06.463Z,-1
2022-12-09T00:59:06.421Z,-1
2022-12-09T01:00:06.589Z,-0.7
2022-12-09T01:01:05.875Z,-0.7
2022-12-09T01:02:06.905Z,-1
2022-12-09T01:03:05.957Z,-1
2022-12-09T01:04:06.897Z,-0.7
2022-12-09T01:05:06.365Z,-0.7
2022-12-09T01:06:05.731Z,-1
2022-12-09T01:07:06.088Z,-0.7
2022-12-09T01:08:06.496Z,-0.7
2022-12-09T01:09:06.193Z,-0.7
2022-12-09T01:10:07.498Z,-0.7
2022-12-09T01:11:05.955Z,-0.7
2022-12-09T01:12:06.252Z,-0.7
2022-12-09T01:13:06.738Z,-0.7
2022-12-09T01:14:05.850Z,-0.7
2022-12-09T01:15:06.526Z,-0.7
2022-12-09T01:16:07.111Z,-0.6
2022-12-09T01:17:07.105Z,-0.7
2022-12-09T01:18:06.134Z,-0.7
2022-12-09T01:19:05.903Z,-0.6
2022-12-09T01:20:07.686Z,-0.7
2022-12-09T01:21:05.993Z,-0.6
2022-12-09T01:22:06.379Z,-0.6
2022-12-09T01:23:06.095Z,-0.6
2022-12-09T01:24:05.649Z,-0.6
2022-12-09T01:25:05.270Z,-0.6
2022-12-09T01:26:06.073Z,-0.6
2022-12-09T01:27:05.549Z,-0.7
2022-12-09T01:28:05.046Z,-0.6
2022-12-09T01:29:06.392Z,-0.6
2022-12-09T01:30:07.272Z,-0.6
2022-12-09T01:31:07.021Z,-0.6
2022-12-09T01:32:06.402Z,-1
2022-12-09T01:33:06.871Z,-0.6
2022-12-09T01:34:06.604Z,-1
2022-12-09T01:35:06.802Z,-0.7
2022-12-09T01:36:07.296Z,-0.7
2022-12-09T01:37:06.347Z,-0.7
2022-12-09T01:38:06.890Z,-0.7
2022-12-09T01:39:06.334Z,-0.7
2022-12-09T01:40:07.417Z,-0.7
2022-12-09T01:41:06.082Z,-0.7
2022-12-09T01:42:06.388Z,-0.7
2022-12-09T01:43:06.194Z,-0.7
2022-12-09T01:44:06.018Z,-0.7
2022-12-09T01:45:06.650Z,-1
2022-12-09T01:46:07.075Z,-0.7
2022-12-09T01:47:06.593Z,-0.7
2022-12-09T01:48:06.861Z,-0.7
2022-12-09T01:49:06.655Z,-0.7
2022-12-09T01:50:06.779Z,-0.7
2022-12-09T01:51:07.040Z,-0.7
2022-12-09T01:52:06.055Z,-0.7
2022-12-09T01:53:07.405Z,-0.8
2022-12-09T01:54:05.198Z,-0.7
2022-12-09T01:55:06.114Z,-0.8
2022-12-09T01:56:06.577Z,-0.8
2022-12-09T01:57:07.201Z,-0.8
2022-12-09T01:58:06.492Z,-0.8
2022-12-09T01:59:06.979Z,-0.7
2022-12-09T02:00:07.799Z,-0.7
2022-12-09T02:01:06.539Z,-0.8
2022-12-09T02:02:06.845Z,-0.8
2022-12-09T02:03:06.431Z,-0.8
2022-12-09T02:04:07.159Z,-0.8
2022-12-09T02:05:06.686Z,-0.8
2022-12-09T02:06:06.791Z,-0.8
2022-12-09T02:07:06.749Z,-0.8
2022-12-09T02:08:06.422Z,-0.8
2022-12-09T02:09:06.726Z,-0.8
2022-12-09T02:10:06.711Z,-0.8
2022-12-09T02:11:06.875Z,-1
2022-12-09T02:12:06.742Z,-0.8
2022-12-09T02:13:06.395Z,-0.8
2022-12-09T02:14:06.146Z,-0.8
2022-12-09T02:15:06.879Z,-0.8
2022-12-09T02:16:06.827Z,-0.8
2022-12-09T02:17:06.224Z,-0.8
2022-12-09T02:18:05.783Z,-0.8
2022-12-09T02:19:05.967Z,-0.8
2022-12-09T02:20:06.969Z,-2
2022-12-09T02:21:05.163Z,-2
2022-12-09T02:22:06.447Z,-0.8
2022-12-09T02:23:06.192Z,-0.8
2022-12-09T02:24:06.285Z,-2
2022-12-09T02:25:06.340Z,-0.8
2022-12-09T02:26:06.258Z,-0.8
2022-12-09T02:27:06.779Z,-2
2022-12-09T02:28:05.718Z,-2
2022-12-09T02:29:06.384Z,-0.8
2022-12-09T02:30:07.668Z,-0.8
2022-12-09T02:31:07.386Z,-0.8
2022-12-09T02:32:06.071Z,-2
2022-12-09T02:33:06.574Z,-0.8
2022-12-09T02:34:06.083Z,-0.8
2022-12-09T02:35:06.347Z,-0.8
2022-12-09T02:36:06.321Z,-0.8
2022-12-09T02:37:06.227Z,-0.8
2022-12-09T02:38:05.758Z,-0.8
2022-12-09T02:39:06.300Z,-0.8
2022-12-09T02:40:06.771Z,-0.8
2022-12-09T02:41:05.890Z,-0.8
2022-12-09T02:42:06.130Z,-0.8
2022-12-09T02:43:06.295Z,-0.8
2022-12-09T02:44:04.822Z,-2
2022-12-09T02:45:06.539Z,-0.8
2022-12-09T02:46:06.612Z,-0.8
2022-12-09T02:47:07.234Z,-0.8
2022-12-09T02:48:06.984Z,-0.8
2022-12-09T02:49:06.341Z,-0.9
2022-12-09T02:50:07.210Z,-0.8
2022-12-09T02:51:06.741Z,-0.8
2022-12-09T02:52:06.534Z,-0.8
2022-12-09T02:53:05.893Z,-0.8
2022-12-09T02:54:06.248Z,-0.8
2022-12-09T02:55:05.777Z,-0.8
2022-12-09T02:56:05.668Z,-2
2022-12-09T02:57:05.977Z,-0.8
2022-12-09T02:58:06.117Z,-0.8
2022-12-09T02:59:06.931Z,-0.8
2022-12-09T03:00:07.242Z,-0.8
2022-12-09T03:01:06.775Z,-0.8
2022-12-09T03:02:07.389Z,-0.8
2022-12-09T03:03:07.075Z,-0.8
2022-12-09T03:04:06.434Z,-0.8
2022-12-09T03:05:06.606Z,-0.8
2022-12-09T03:06:06.058Z,-0.8
2022-12-09T03:07:06.132Z,-1
2022-12-09T03:08:05.727Z,-0.8
2022-12-09T03:09:06.393Z,-0.8
2022-12-09T03:10:07.581Z,-1
2022-12-09T03:11:06.310Z,-0.8
2022-12-09T03:12:05.760Z,-0.8
2022-12-09T03:13:06.300Z,-0.8
2022-12-09T03:14:06.240Z,-0.8
2022-12-09T03:15:05.909Z,-0.8
2022-12-09T03:16:06.744Z,-0.8
2022-12-09T03:17:06.975Z,-0.8
2022-12-09T03:18:06.448Z,-0.8
2022-12-09T03:19:06.077Z,-0.8
2022-12-09T03:20:06.706Z,-1
2022-12-09T03:21:06.033Z,-0.8
2022-12-09T03:22:06.704Z,-0.8
2022-12-09T03:23:06.006Z,-0.8
2022-12-09T03:24:06.544Z,-0.8
2022-12-09T03:25:06.272Z,-0.8
2022-12-09T03:26:06.126Z,-0.8
2022-12-09T03:27:06.475Z,-0.8
2022-12-09T03:28:06.811Z,-0.8
2022-12-09T03:29:06.075Z,-0.8
2022-12-09T03:30:07.460Z,-0.8
2022-12-09T03:31:06.770Z,-0.8
2022-12-09T03:32:06.816Z,-0.8
2022-12-09T03:33:06.890Z,-0.8
2022-12-09T03:34:06.320Z,-0.8
2022-12-09T03:35:06.359Z,-0.8
2022-12-09T03:36:06.304Z,-0.7
2022-12-09T03:37:06.868Z,-0.7
2022-12-09T03:38:06.079Z,-1
2022-12-09T03:39:05.947Z,-0.7
2022-12-09T03:40:14.017Z,-0.7
2022-12-09T03:41:05.520Z,-0.7
2022-12-09T03:42:05.892Z,-0.7
2022-12-09T03:43:05.190Z,-1
2022-12-09T03:44:06.760Z,-1
2022-12-09T03:45:05.635Z,-1
2022-12-09T03:46:07.151Z,-0.7
2022-12-09T03:47:05.530Z,-0.7
2022-12-09T03:48:06.424Z,-0.7
2022-12-09T03:49:06.393Z,-0.7
2022-12-09T03:50:06.711Z,-0.7
2022-12-09T03:51:06.849Z,-0.7
2022-12-09T03:52:06.729Z,-0.7
2022-12-09T03:53:06.848Z,-0.7
2022-12-09T03:54:04.889Z,-0.6
2022-12-09T03:55:06.677Z,-0.7
2022-12-09T03:56:06.012Z,-0.6
2022-12-09T03:57:06.378Z,-0.6
2022-12-09T03:58:06.563Z,-0.6
2022-12-09T03:59:06.564Z,-0.6
2022-12-09T04:00:06.842Z,-0.6
2022-12-09T04:01:06.838Z,-0.6
2022-12-09T04:02:06.591Z,-0.6
2022-12-09T04:03:06.759Z,-0.6
2022-12-09T04:04:06.365Z,-1
2022-12-09T04:05:07.163Z,-0.6
2022-12-09T04:06:05.912Z,-0.6
2022-12-09T04:07:06.060Z,-0.6
2022-12-09T04:08:07.206Z,-0.6
2022-12-09T04:09:07.724Z,-0.6
2022-12-09T04:10:07.092Z,-0.6
2022-12-09T04:11:06.217Z,-0.6
2022-12-09T04:12:06.866Z,-0.6
2022-12-09T04:13:06.806Z,-0.5
2022-12-09T04:14:09.233Z,-0.5
2022-12-09T04:15:05.919Z,-0.6
2022-12-09T04:16:07.203Z,-0.5
2022-12-09T04:17:06.318Z,-0.5
2022-12-09T04:18:06.417Z,-0.5
2022-12-09T04:19:05.610Z,-0.5
2022-12-09T04:20:06.692Z,-0.5
2022-12-09T04:21:05.549Z,-1
2022-12-09T04:22:06.349Z,-0.5
2022-12-09T04:23:06.586Z,-0.5
2022-12-09T04:24:05.853Z,-0.5
2022-12-09T04:25:06.784Z,-0.5
2022-12-09T04:26:07.057Z,-0.5
2022-12-09T04:27:05.914Z,-0.5
2022-12-09T04:28:06.667Z,-0.5
2022-12-09T04:29:07.111Z,-1
2022-12-09T04:30:07.958Z,-0.4
2022-12-09T04:31:07.459Z,-0.4
2022-12-09T04:32:06.845Z,-0.4
2022-12-09T04:33:06.815Z,-0.4
2022-12-09T04:34:13.909Z,-0.4
2022-12-09T04:35:06.538Z,-0.4
2022-12-09T04:36:06.433Z,-0.4
2022-12-09T04:37:06.419Z,-0.4
2022-12-09T04:38:05.999Z,-0.4
2022-12-09T04:39:06.324Z,-0.4
2022-12-09T04:40:06.666Z,-0.4
2022-12-09T04:41:06.410Z,-0.4
2022-12-09T04:42:06.864Z,-0.4
2022-12-09T04:43:06.143Z,-0.4
2022-12-09T04:44:06.466Z,-0.4
2022-12-09T04:45:05.787Z,-0.4
2022-12-09T04:46:06.430Z,-0.4
2022-12-09T04:47:07.066Z,-0.4
2022-12-09T04:48:06.094Z,-0.4
2022-12-09T04:49:05.346Z,-0.4
2022-12-09T04:50:06.394Z,-0.4
2022-12-09T04:51:05.343Z,-0.4
2022-12-09T04:52:06.132Z,-0.4
2022-12-09T04:53:06.573Z,-0.4
2022-12-09T04:54:06.556Z,-0.4
2022-12-09T04:55:06.159Z,-0.4
2022-12-09T04:56:06.400Z,-0.4
2022-12-09T04:57:06.031Z,-0.4
2022-12-09T04:58:06.603Z,-0.4
2022-12-09T04:59:06.247Z,-0.4
2022-12-09T05:00:07.436Z,-0.4
2022-12-09T05:01:06.835Z,-0.4
2022-12-09T05:02:07.152Z,-0.4
2022-12-09T05:03:06.576Z,-0.4
2022-12-09T05:04:07.186Z,-1
2022-12-09T05:05:08.057Z,-1
2022-12-09T05:06:06.428Z,-0.4
2022-12-09T05:07:07.106Z,-0.5
2022-12-09T05:08:07.246Z,-0.5
2022-12-09T05:09:06.775Z,-0.4
2022-12-09T05:10:07.977Z,-0.4
2022-12-09T05:11:06.316Z,-0.4
2022-12-09T05:12:06.428Z,-0.5
2022-12-09T05:13:05.475Z,-0.5
2022-12-09T05:14:06.097Z,-0.5
2022-12-09T05:15:07.075Z,-0.4
2022-12-09T05:16:16.232Z,-0.5
2022-12-09T05:17:07.324Z,-1
2022-12-09T05:18:07.437Z,-0.4
2022-12-09T05:19:07.044Z,-0.4
2022-12-09T05:20:06.906Z,-1
2022-12-09T05:21:06.970Z,-0.4
2022-12-09T05:22:06.448Z,-0.4
2022-12-09T05:23:13.745Z,-0.4
2022-12-09T05:24:07.267Z,-0.4
2022-12-09T05:25:06.248Z,-0.4
2022-12-09T05:26:06.428Z,-0.4
2022-12-09T05:27:05.971Z,-0.4
2022-12-09T05:28:06.343Z,-1
2022-12-09T05:29:06.456Z,-0.4
2022-12-09T05:30:07.942Z,-0.4
2022-12-09T05:31:07.097Z,-0.4
2022-12-09T05:32:07.037Z,-0.4
2022-12-09T05:33:06.748Z,-0.4
2022-12-09T05:34:07.007Z,-1
2022-12-09T05:35:06.923Z,-0.4
2022-12-09T05:36:06.701Z,-0.4
2022-12-09T05:37:06.557Z,-1
2022-12-09T05:38:06.749Z,-0.4
2022-12-09T05:39:06.038Z,-1
2022-12-09T05:40:07.459Z,-0.4
2022-12-09T05:41:06.772Z,-0.4
2022-12-09T05:42:07.174Z,-0.4
2022-12-09T05:43:05.043Z,-0.4
2022-12-09T05:44:06.411Z,-0.4
2022-12-09T05:45:06.518Z,-0.4
2022-12-09T05:46:07.645Z,-0.4
2022-12-09T05:47:06.873Z,-0.4
2022-12-09T05:48:06.085Z,-0.4
2022-12-09T05:49:06.507Z,-0.4
2022-12-09T05:50:12.724Z,-0.4
2022-12-09T05:51:07.939Z,-0.4
2022-12-09T05:52:06.823Z,-1
2022-12-09T05:53:06.745Z,-0.4
2022-12-09T05:54:07.185Z,-1
2022-12-09T05:55:07.133Z,-1
2022-12-09T05:56:07.403Z,-0.4
2022-12-09T05:57:06.760Z,-0.4
2022-12-09T05:58:06.935Z,-1
2022-12-09T05:59:06.697Z,-0.4
2022-12-09T06:00:07.765Z,-0.4
2022-12-09T06:01:07.217Z,-0.4
2022-12-09T06:02:14.012Z,-0.4
2022-12-09T06:03:07.926Z,-1
2022-12-09T06:04:07.441Z,-1
2022-12-09T06:05:06.903Z,-0.4
2022-12-09T06:06:06.764Z,-1
2022-12-09T06:07:07.028Z,-0.4
2022-12-09T06:08:11.474Z,-0.4
2022-12-09T06:09:05.892Z,-0.4
2022-12-09T06:10:07.715Z,-1
2022-12-09T06:11:05.721Z,-1
2022-12-09T06:12:06.658Z,-0.4
2022-12-09T06:13:06.686Z,-0.4
2022-12-09T06:14:06.595Z,-1
2022-12-09T06:15:10.359Z,-0.4
2022-12-09T06:16:06.943Z,-0.4
2022-12-09T06:17:06.993Z,-0.4
2022-12-09T06:18:05.658Z,-0.4
2022-12-09T06:19:07.486Z,-0.4
2022-12-09T06:20:06.724Z,-0.4
2022-12-09T06:21:06.271Z,-0.4
2022-12-09T06:22:06.021Z,-0.4
2022-12-09T06:23:07.238Z,-1
2022-12-09T06:24:07.426Z,-0.4
2022-12-09T06:25:05.871Z,-0.4
2022-12-09T06:26:06.375Z,-0.4
2022-12-09T06:27:07.016Z,-0.4
2022-12-09T06:28:06.331Z,-0.4
2022-12-09T06:29:07.054Z,-1
2022-12-09T06:30:06.516Z,-1
2022-12-09T06:31:07.397Z,-1
2022-12-09T06:32:06.362Z,-0.4
2022-12-09T06:34:06.838Z,-0.4
2022-12-09T06:35:08.047Z,-1
2022-12-09T06:36:07.863Z,-0.4
2022-12-09T06:37:06.920Z,-0.4
2022-12-09T06:38:06.986Z,-0.4
2022-12-09T06:39:13.715Z,-1
2022-12-09T06:40:05.503Z,-0.4
2022-12-09T06:41:07.051Z,-0.4
2022-12-09T06:42:05.567Z,-0.4
2022-12-09T06:43:04.961Z,-0.4
2022-12-09T06:44:05.691Z,-0.4
2022-12-09T06:45:06.856Z,-0.4
2022-12-09T06:46:06.589Z,-1
2022-12-09T06:47:06.953Z,-0.4
2022-12-09T06:48:07.225Z,-0.4
2022-12-09T06:49:07.201Z,-0.4
2022-12-09T06:50:12.306Z,-0.4
2022-12-09T06:51:06.869Z,-1
2022-12-09T06:52:06.890Z,-1
2022-12-09T06:53:06.720Z,-0.4
2022-12-09T06:54:07.032Z,-0.4
2022-12-09T06:55:07.968Z,-0.4
2022-12-09T06:56:15.611Z,-0.3
2022-12-09T06:57:06.770Z,-0.3
2022-12-09T06:58:06.565Z,-0.4
2022-12-09T06:59:07.134Z,-0.4
2022-12-09T07:00:06.484Z,-0.3
2022-12-09T07:01:06.146Z,-0.3
2022-12-09T07:02:06.329Z,-0.3
2022-12-09T07:03:05.966Z,-0.3
2022-12-09T07:04:07.525Z,-0.3
2022-12-09T07:05:07.740Z,-0.3
2022-12-09T07:06:07.817Z,-0.3
2022-12-09T07:07:06.507Z,-0.3
2022-12-09T07:08:07.723Z,-0.3
2022-12-09T07:09:07.222Z,-0.3
2022-12-09T07:10:07.267Z,-0.3
2022-12-09T07:11:07.577Z,-0.3
2022-12-09T07:12:06.740Z,-0.3
2022-12-09T07:13:07.260Z,-0.3
2022-12-09T07:14:06.756Z,-0.3
2022-12-09T07:15:07.375Z,-0.3
2022-12-09T07:16:07.837Z,-0.3
2022-12-09T07:17:06.982Z,-0.3
2022-12-09T07:18:07.730Z,-0.3
2022-12-09T07:19:06.949Z,-0.3
2022-12-09T07:20:11.874Z,-0.3
2022-12-09T07:21:06.199Z,-0.3
2022-12-09T07:22:07.442Z,-0.3
2022-12-09T07:23:05.892Z,-0.3
2022-12-09T07:24:07.093Z,-0.3
2022-12-09T07:25:07.515Z,-0.3
2022-12-09T07:26:06.072Z,-1
2022-12-09T07:27:20.002Z,-0.3
2022-12-09T07:28:06.736Z,-0.3
2022-12-09T07:29:06.635Z,-0.3
2022-12-09T07:30:07.119Z,-0.3
2022-12-09T07:31:07.107Z,-0.3
2022-12-09T07:32:06.303Z,-0.3
2022-12-09T07:33:07.097Z,-0.3
2022-12-09T07:34:08.402Z,-0.3
2022-12-09T07:35:07.254Z,-0.3
2022-12-09T07:36:06.626Z,-0.3
2022-12-09T07:37:06.054Z,-0.3
2022-12-09T07:38:06.811Z,-0.3
2022-12-09T07:39:06.995Z,-0.3
2022-12-09T07:40:07.321Z,-0.3
2022-12-09T07:41:07.056Z,-0.3
2022-12-09T07:42:06.061Z,-0.3
2022-12-09T07:43:06.920Z,-0.3
2022-12-09T07:44:06.811Z,-1
2022-12-09T07:45:06.573Z,-0.2
2022-12-09T07:46:07.731Z,-0.2
2022-12-09T07:47:06.424Z,-0.2
2022-12-09T07:48:07.138Z,-0.2
2022-12-09T07:49:07.281Z,-0.2
2022-12-09T07:50:11.746Z,-0.2
2022-12-09T07:51:06.674Z,-0.1
2022-12-09T07:52:06.372Z,-0.1
2022-12-09T07:53:05.633Z,-0.1
2022-12-09T07:54:06.945Z,-0.1
2022-12-09T07:55:06.627Z,-0.1
2022-12-09T07:56:06.175Z,-0.1
2022-12-09T07:57:06.174Z,-0.1
2022-12-09T07:58:06.648Z,-0.1
2022-12-09T07:59:07.102Z,-0.1
2022-12-09T08:00:06.342Z,-1
2022-12-09T08:01:06.484Z,-1
2022-12-09T08:02:11.265Z,-1
2022-12-09T08:03:07.419Z,0
2022-12-09T08:04:08.150Z,0
2022-12-09T08:05:07.444Z,0
2022-12-09T08:06:07.603Z,0
2022-12-09T08:07:06.776Z,0
2022-12-09T08:08:08.338Z,0
2022-12-09T08:09:07.046Z,0
2022-12-09T08:10:06.928Z,0
2022-12-09T08:11:06.107Z,0
2022-12-09T08:12:06.884Z,0
2022-12-09T08:13:08.026Z,0
2022-12-09T08:14:14.994Z,0
2022-12-09T08:15:07.728Z,0
2022-12-09T08:16:05.439Z,0
2022-12-09T08:17:06.707Z,0
2022-12-09T08:18:07.063Z,0
2022-12-09T08:19:07.957Z,0
2022-12-09T08:20:08.162Z,0
2022-12-09T08:21:06.956Z,0
2022-12-09T08:22:06.267Z,0
2022-12-09T08:23:06.379Z,0
2022-12-09T08:24:07.561Z,0
2022-12-09T08:25:07.967Z,0
2022-12-09T08:26:07.276Z,0
2022-12-09T08:27:06.751Z,0
2022-12-09T08:28:07.091Z,0
2022-12-09T08:29:07.467Z,0
2022-12-09T08:30:07.084Z,0
2022-12-09T08:31:08.214Z,0
2022-12-09T08:32:06.880Z,0
2022-12-09T08:33:07.277Z,0
2022-12-09T08:34:06.718Z,0
2022-12-09T08:35:07.308Z,0
2022-12-09T08:36:06.679Z,0
2022-12-09T08:37:07.408Z,0
2022-12-09T08:38:06.599Z,0
2022-12-09T08:39:05.062Z,0
2022-12-09T08:40:07.715Z,0
2022-12-09T08:41:06.172Z,0.1
2022-12-09T08:42:06.192Z,0
2022-12-09T08:43:06.448Z,0
2022-12-09T08:44:07.162Z,0.1
2022-12-09T08:45:07.902Z,0.1
2022-12-09T08:46:07.048Z,0.1
2022-12-09T08:47:06.654Z,0
2022-12-09T08:48:06.957Z,0.1
2022-12-09T08:49:07.196Z,0.2
2022-12-09T08:50:07.489Z,0.2
2022-12-09T08:51:06.642Z,0.2
2022-12-09T08:52:06.774Z,0.2
2022-12-09T08:53:06.028Z,0.2
2022-12-09T08:54:05.984Z,0.2
2022-12-09T08:55:06.441Z,0.2
2022-12-09T08:56:06.993Z,0.2
2022-12-09T08:57:06.405Z,0.2
2022-12-09T08:58:06.558Z,0.2
2022-12-09T08:59:06.725Z,0.3
2022-12-09T09:00:07.938Z,0
2022-12-09T09:01:07.306Z,0.3
2022-12-09T09:02:08.006Z,0
2022-12-09T09:03:06.987Z,0.3
2022-12-09T09:04:07.825Z,0.3
2022-12-09T09:05:08.224Z,0.3
2022-12-09T09:06:14.268Z,0.3
2022-12-09T09:07:06.440Z,0.4
2022-12-09T09:08:05.763Z,0.4
2022-12-09T09:09:07.323Z,0.4
2022-12-09T09:10:08.326Z,0.4
2022-12-09T09:11:06.878Z,0
2022-12-09T09:12:06.776Z,0.4
2022-12-09T09:13:06.430Z,0.4
2022-12-09T09:14:07.041Z,0.4
2022-12-09T09:15:08.145Z,0.4
2022-12-09T09:16:06.335Z,0.4
2022-12-09T09:17:06.731Z,0.4
2022-12-09T09:18:07.024Z,0.4
2022-12-09T09:19:07.191Z,0.4
2022-12-09T09:20:07.728Z,0.5
2022-12-09T09:21:06.368Z,0.4
2022-12-09T09:22:06.775Z,0.4
2022-12-09T09:23:08.881Z,0.4
2022-12-09T09:24:07.172Z,0.5
2022-12-09T09:25:07.997Z,0.4
2022-12-09T09:26:06.352Z,0.5
2022-12-09T09:27:07.194Z,0.5
2022-12-09T09:28:06.925Z,0.5
2022-12-09T09:29:06.641Z,0.5
2022-12-09T09:30:05.915Z,0.5
2022-12-09T09:31:07.685Z,0.5
2022-12-09T09:32:07.370Z,0.5
2022-12-09T09:33:06.740Z,0.5
2022-12-09T09:34:07.463Z,0.5
2022-12-09T09:35:07.864Z,0.5
2022-12-09T09:36:14.490Z,0.5
2022-12-09T09:37:06.329Z,0.5
2022-12-09T09:38:06.905Z,0.5
2022-12-09T09:39:06.895Z,0.6
2022-12-09T09:40:07.791Z,0.6
2022-12-09T09:41:06.259Z,0.6
2022-12-09T09:42:12.828Z,0.6
2022-12-09T09:43:06.449Z,0.6
2022-12-09T09:44:07.159Z,0.6
2022-12-09T09:45:07.061Z,0.6
2022-12-09T09:46:07.059Z,0
2022-12-09T09:47:06.999Z,0.7
2022-12-09T09:48:07.355Z,0.7
2022-12-09T09:49:06.750Z,0.7
2022-12-09T09:50:08.342Z,0.7
2022-12-09T09:51:06.552Z,0.8
2022-12-09T09:52:06.679Z,0.7
2022-12-09T09:53:06.656Z,0.7
2022-12-09T09:54:13.227Z,0.8
2022-12-09T09:55:06.868Z,0.8
2022-12-09T09:56:07.195Z,0.8
2022-12-09T09:57:07.021Z,0.8
2022-12-09T09:58:06.782Z,0.8
2022-12-09T09:59:07.329Z,0.8
2022-12-09T10:00:14.606Z,0.8
2022-12-09T10:01:07.676Z,0.8
2022-12-09T10:02:07.611Z,0.9
2022-12-09T10:03:07.943Z,0.9
2022-12-09T10:04:07.066Z,0.8
2022-12-09T10:05:07.361Z,0.8
2022-12-09T10:06:07.094Z,0.9
2022-12-09T10:07:12.447Z,0.9
2022-12-09T10:08:07.265Z,0.9
2022-12-09T10:09:07.654Z,0.9
2022-12-09T10:10:08.524Z,0
2022-12-09T10:11:07.972Z,0.9
2022-12-09T10:12:07.687Z,1
2022-12-09T10:13:20.143Z,1
2022-12-09T10:14:07.216Z,1
2022-12-09T10:15:07.995Z,1
2022-12-09T10:16:06.390Z,0
2022-12-09T10:17:07.586Z,1.1
2022-12-09T10:18:07.066Z,1
2022-12-09T10:19:12.961Z,1.1
2022-12-09T10:20:08.076Z,1
2022-12-09T10:21:07.494Z,1.1
2022-12-09T10:22:07.394Z,0
2022-12-09T10:23:07.201Z,1.1
2022-12-09T10:24:07.072Z,1.1
2022-12-09T10:25:07.153Z,1.1
2022-12-09T10:26:07.889Z,1.2
2022-12-09T10:27:06.847Z,1.2
2022-12-09T10:28:07.257Z,1.2
2022-12-09T10:29:06.963Z,1.2
2022-12-09T10:30:08.634Z,1.2
2022-12-09T10:31:07.750Z,1.2
2022-12-09T10:32:07.387Z,1.2
2022-12-09T10:33:07.347Z,1
2022-12-09T10:34:08.152Z,1.2
2022-12-09T10:35:07.855Z,1.2
2022-12-09T10:36:05.713Z,1.2
2022-12-09T10:37:06.609Z,1.2
2022-12-09T10:38:05.544Z,1.2
2022-12-09T10:39:06.900Z,1.2
2022-12-09T10:40:06.559Z,1.2
2022-12-09T10:41:06.637Z,1.3
2022-12-09T10:42:06.989Z,1.2
2022-12-09T10:43:07.234Z,1.3
2022-12-09T10:44:06.558Z,1.3
2022-12-09T10:45:06.812Z,1.3
2022-12-09T10:46:24.191Z,1.4
2022-12-09T10:47:06.443Z,1.4
2022-12-09T10:48:06.503Z,1.4
2022-12-09T10:49:07.436Z,1.4
2022-12-09T10:50:08.116Z,1.4
2022-12-09T10:51:07.333Z,1.5
2022-12-09T10:52:07.807Z,1.5
2022-12-09T10:53:06.249Z,1.5
2022-12-09T10:54:07.650Z,1.4
2022-12-09T10:55:06.701Z,1.5
2022-12-09T10:56:06.475Z,1.5
2022-12-09T10:57:05.893Z,1.5
2022-12-09T10:58:05.837Z,1.5
2022-12-09T10:59:06.124Z,1.5
2022-12-09T11:00:07.982Z,1.5
2022-12-09T11:01:06.132Z,1.5
2022-12-09T11:02:07.910Z,1.6
2022-12-09T11:03:08.466Z,1.6
2022-12-09T11:04:06.604Z,1.6
2022-12-09T11:05:08.916Z,1
2022-12-09T11:06:07.094Z,1.6
2022-12-09T11:07:07.663Z,1.6
2022-12-09T11:08:07.890Z,1
2022-12-09T11:09:07.236Z,1
2022-12-09T11:10:08.678Z,1.6
2022-12-09T11:11:07.696Z,1.6
2022-12-09T11:12:07.548Z,1.6
2022-12-09T11:13:07.150Z,1.6
2022-12-09T11:14:06.244Z,1.6
2022-12-09T11:15:06.776Z,1.6
2022-12-09T11:16:07.069Z,1.6
2022-12-09T11:17:07.154Z,1.6
2022-12-09T11:18:07.848Z,1.6
2022-12-09T11:19:06.684Z,1.7
2022-12-09T11:20:07.425Z,1
2022-12-09T11:21:08.161Z,1.7
2022-12-09T11:22:06.278Z,1.7
2022-12-09T11:23:07.660Z,1.7
2022-12-09T11:24:08.706Z,1.7
2022-12-09T11:25:06.934Z,1.7
2022-12-09T11:26:07.633Z,1.7
2022-12-09T11:27:05.754Z,1.7
2022-12-09T11:28:06.836Z,1.6
2022-12-09T11:29:06.177Z,1.6
2022-12-09T11:30:15.952Z,1.6
2022-12-09T11:31:36.393Z,1.6
2022-12-09T11:32:06.481Z,1
2022-12-09T11:33:07.836Z,1
2022-12-09T11:34:06.811Z,1
2022-12-09T11:35:07.680Z,1.7
2022-12-09T11:37:06.014Z,1.6
2022-12-09T11:38:05.694Z,1.7
2022-12-09T11:39:06.244Z,1.6
2022-12-09T11:40:06.246Z,1.7
2022-12-09T11:41:05.039Z,1.7
2022-12-09T11:42:08.187Z,1.8
2022-12-09T11:43:05.971Z,1.8
2022-12-09T11:44:06.433Z,1.8
2022-12-09T11:45:05.884Z,1.8
2022-12-09T11:46:05.193Z,1.8
2022-12-09T11:47:04.928Z,1.8
2022-12-09T11:48:44.073Z,1.8
2022-12-09T11:49:06.100Z,1.8
2022-12-09T11:50:06.004Z,1
2022-12-09T11:51:06.155Z,1.8
2022-12-09T11:52:05.986Z,1.8
2022-12-09T11:53:06.301Z,1.8
2022-12-09T11:54:07.826Z,1.8
2022-12-09T11:55:06.379Z,1
2022-12-09T11:56:05.754Z,1.8
2022-12-09T11:57:06.306Z,1.8
2022-12-09T11:58:06.214Z,1.8
2022-12-09T11:59:06.398Z,1.8
2022-12-09T12:00:07.273Z,1.8
2022-12-09T12:01:06.436Z,1.8
2022-12-09T12:02:05.788Z,1.8
2022-12-09T12:03:05.947Z,1.8
2022-12-09T12:04:06.368Z,1.9
2022-12-09T12:05:05.920Z,1.9
2022-12-09T12:06:05.630Z,1.8
2022-12-09T12:07:05.777Z,1.9
2022-12-09T12:08:06.608Z,1
2022-12-09T12:09:06.515Z,1.9
2022-12-09T12:10:05.855Z,1.8
2022-12-09T12:11:07.430Z,1.8
2022-12-09T12:12:06.235Z,1.9
2022-12-09T12:13:06.360Z,1.9
2022-12-09T12:14:05.920Z,1.9
2022-12-09T12:15:05.934Z,1.9
2022-12-09T12:16:05.931Z,1.9
2022-12-09T12:17:06.500Z,1.9
2022-12-09T12:18:05.857Z,2
2022-12-09T12:19:05.764Z,2
2022-12-09T12:20:06.989Z,2
2022-12-09T12:21:05.774Z,2
2022-12-09T12:22:04.901Z,2
2022-12-09T12:23:05.896Z,2
2022-12-09T12:24:06.402Z,2
2022-12-09T12:25:05.827Z,2
2022-12-09T12:26:05.880Z,2
2022-12-09T12:27:06.291Z,2
2022-12-09T12:28:05.540Z,2
2022-12-09T12:29:11.446Z,2
2022-12-09T12:30:07.440Z,2
2022-12-09T12:31:05.681Z,2
2022-12-09T12:32:06.389Z,2
2022-12-09T12:34:25.217Z,2
2022-12-09T12:34:28.306Z,2.1
2022-12-09T12:36:05.958Z,2.1
2022-12-09T12:37:06.158Z,2.1
2022-12-09T12:38:05.570Z,2.2
2022-12-09T12:39:06.136Z,2.2
2022-12-09T12:40:06.352Z,2.1
2022-12-09T12:41:05.486Z,2.1
2022-12-09T12:42:05.978Z,2.2
2022-12-09T12:43:06.239Z,2.2
2022-12-09T12:44:05.637Z,2.2
2022-12-09T12:45:05.961Z,2.1
2022-12-09T12:46:06.140Z,2.2
2022-12-09T12:47:04.886Z,2.2
2022-12-09T12:48:06.093Z,2.2
2022-12-09T12:49:06.369Z,2.2
2022-12-09T12:50:06.172Z,2.2
2022-12-09T12:51:05.566Z,2.2
2022-12-09T12:52:05.997Z,2
2022-12-09T12:53:06.254Z,2
2022-12-09T12:54:05.978Z,2
2022-12-09T12:55:05.556Z,2.2
2022-12-09T12:56:05.910Z,2
2022-12-09T12:57:09.584Z,2
2022-12-09T12:58:05.446Z,2.2
2022-12-09T12:59:06.137Z,2.2
2022-12-09T13:00:05.820Z,2.2
2022-12-09T13:01:06.208Z,2.2
2022-12-09T13:02:06.398Z,2.2
2022-12-09T13:03:13.096Z,2.2
2022-12-09T13:04:06.422Z,2.2
2022-12-09T13:05:05.486Z,2.2
2022-12-09T13:06:05.817Z,2.2
2022-12-09T13:07:05.454Z,2.2
2022-12-09T13:08:05.815Z,2.1
2022-12-09T13:09:05.400Z,2.2
2022-12-09T13:10:06.412Z,2.2
2022-12-09T13:11:04.803Z,2.2
2022-12-09T13:12:04.887Z,2.2
2022-12-09T13:13:05.000Z,2
2022-12-09T13:14:05.696Z,2.1
2022-12-09T13:15:06.405Z,2.2
2022-12-09T13:16:06.201Z,2.2
2022-12-09T13:17:05.753Z,2.2
2022-12-09T13:18:05.771Z,2
2022-12-09T13:19:06.268Z,2.2
2022-12-09T13:20:06.084Z,2.2
2022-12-09T13:21:06.421Z,2.2
2022-12-09T13:22:05.710Z,2.2
2022-12-09T13:23:05.660Z,2.2
2022-12-09T13:24:06.152Z,2
2022-12-09T13:25:05.590Z,2
2022-12-09T13:26:06.033Z,2.2
2022-12-09T13:27:05.801Z,2.2
2022-12-09T13:28:06.297Z,2.2
2022-12-09T13:29:05.792Z,2.2
2022-12-09T13:30:06.951Z,2.2
2022-12-09T13:31:05.714Z,2.2
2022-12-09T13:32:06.061Z,2.2
2022-12-09T13:33:05.607Z,2
2022-12-09T13:34:06.032Z,2.2
2022-12-09T13:35:05.507Z,2.2
2022-12-09T13:36:06.751Z,2.1
2022-12-09T13:37:05.460Z,2.2
2022-12-09T13:38:05.438Z,2.1
2022-12-09T13:39:05.036Z,2.2
2022-12-09T13:40:05.973Z,2.1
2022-12-09T13:41:04.542Z,2
2022-12-09T13:42:06.224Z,2
2022-12-09T13:43:05.747Z,2.1